createdAt,value
2019-03-19T00:01:37.221Z,7.25
2019-03-19T00:04:03.283Z,7.08
2019-03-19T00:06:29.105Z,6.98
2019-03-19T00:08:55.108Z,6.92
2019-03-19T00:11:20.977Z,6.82
2019-03-19T00:13:46.924Z,6.77
2019-03-19T00:16:12.804Z,6.73
2019-03-19T00:18:38.801Z,6.76
2019-03-19T00:21:04.715Z,6.78
2019-03-19T00:23:32.370Z,6.70
2019-03-19T00:25:58.203Z,6.78
2019-03-19T00:28:24.105Z,6.84
2019-03-19T00:30:50.103Z,6.74
2019-03-19T00:33:16.036Z,6.51
2019-03-19T00:35:41.882Z,6.51
2019-03-19T00:38:07.865Z,6.44
2019-03-19T00:40:33.814Z,6.36
2019-03-19T00:42:59.641Z,6.25
2019-03-19T00:45:25.698Z,6.16
2019-03-19T00:47:51.586Z,6.13
2019-03-19T00:50:17.444Z,6.07
2019-03-19T00:52:43.621Z,6.08
2019-03-19T00:55:10.383Z,6.10
2019-03-19T00:57:36.278Z,6.18
2019-03-19T01:02:37.303Z,6.04
2019-03-19T01:05:04.686Z,6.05
2019-03-19T01:07:30.537Z,6.02
2019-03-19T01:09:56.472Z,6.17
2019-03-19T01:12:22.384Z,6.03
2019-03-19T01:14:48.238Z,5.93
2019-03-19T01:17:14.071Z,5.86
2019-03-19T01:19:40.029Z,5.84
2019-03-19T01:22:06.065Z,5.70
2019-03-19T01:24:32.065Z,5.67
2019-03-19T01:26:58.025Z,5.66
2019-03-19T01:29:23.852Z,5.59
2019-03-19T01:31:49.696Z,5.67
2019-03-19T01:34:15.562Z,5.69
2019-03-19T01:36:41.626Z,5.60
2019-03-19T01:39:07.585Z,5.64
2019-03-19T01:41:33.529Z,5.63
2019-03-19T01:43:59.518Z,5.61
2019-03-19T01:46:25.366Z,5.51
2019-03-19T01:48:51.208Z,5.32
2019-03-19T01:51:17.188Z,5.36
2019-03-19T01:53:46.884Z,5.25
2019-03-19T01:56:12.846Z,5.14
2019-03-19T01:58:38.711Z,5.16
2019-03-19T02:01:04.777Z,5.18
2019-03-19T02:03:30.751Z,5.23
2019-03-19T02:05:56.593Z,5.11
2019-03-19T02:08:22.529Z,5.18
2019-03-19T02:10:48.549Z,5.09
2019-03-19T02:13:14.529Z,5.01
2019-03-19T02:15:40.477Z,5.03
2019-03-19T02:18:06.478Z,5.06
2019-03-19T02:20:32.895Z,5.05
2019-03-19T02:22:58.855Z,4.96
2019-03-19T02:25:24.925Z,4.94
2019-03-19T02:27:50.888Z,4.91
2019-03-19T02:30:17.075Z,4.78
2019-03-19T02:32:42.921Z,4.79
2019-03-19T02:35:08.881Z,4.69
2019-03-19T02:37:34.727Z,4.70
2019-03-19T02:40:00.578Z,4.70
2019-03-19T02:42:26.733Z,4.68
2019-03-19T02:44:52.797Z,4.68
2019-03-19T02:47:18.848Z,4.75
2019-03-19T02:49:44.904Z,4.71
2019-03-19T02:52:10.869Z,4.72
2019-03-19T02:54:36.887Z,4.63
2019-03-19T02:57:02.837Z,4.60
2019-03-19T02:59:28.688Z,4.56
2019-03-19T03:01:54.593Z,4.54
2019-03-19T03:04:20.530Z,4.50
2019-03-19T03:06:46.481Z,4.45
2019-03-19T03:09:12.437Z,4.53
2019-03-19T03:11:38.429Z,4.48
2019-03-19T03:14:04.432Z,4.44
2019-03-19T03:16:30.279Z,4.42
2019-03-19T03:18:56.134Z,4.42
2019-03-19T03:21:22.126Z,4.47
2019-03-19T03:23:47.963Z,4.40
2019-03-19T03:26:13.831Z,4.35
2019-03-19T03:28:39.896Z,4.34
2019-03-19T03:31:05.905Z,4.33
2019-03-19T03:33:31.738Z,4.18
2019-03-19T03:35:57.575Z,4.20
2019-03-19T03:38:23.428Z,4.27
2019-03-19T03:40:49.457Z,4.21
2019-03-19T03:43:15.436Z,4.17
2019-03-19T03:45:41.236Z,4.17
2019-03-19T03:48:07.266Z,4.15
2019-03-19T03:50:33.300Z,4.14
2019-03-19T03:52:59.246Z,4.08
2019-03-19T03:55:25.314Z,4.08
2019-03-19T03:57:51.265Z,4.01
2019-03-19T04:00:21.514Z,4.01
2019-03-19T04:02:47.491Z,3.96
2019-03-19T04:05:13.536Z,3.96
2019-03-19T04:07:39.737Z,3.81
2019-03-19T04:10:14.322Z,3.94
2019-03-19T04:12:40.366Z,3.97
2019-03-19T04:15:15.604Z,3.85
2019-03-19T04:17:41.628Z,3.85
2019-03-19T04:20:09.489Z,3.86
2019-03-19T04:22:35.475Z,3.93
2019-03-19T04:25:01.563Z,3.93
2019-03-19T04:27:27.428Z,3.86
2019-03-19T04:29:53.401Z,3.91
2019-03-19T04:32:19.234Z,3.92
2019-03-19T04:34:45.185Z,3.78
2019-03-19T04:37:11.223Z,3.86
2019-03-19T04:39:37.076Z,3.83
2019-03-19T04:42:03.129Z,3.83
2019-03-19T04:44:29.094Z,3.88
2019-03-19T04:46:54.896Z,3.88
2019-03-19T04:49:20.740Z,3.86
2019-03-19T04:51:46.632Z,3.80
2019-03-19T04:54:12.664Z,3.77
2019-03-19T04:56:38.541Z,3.72
2019-03-19T04:59:04.518Z,3.72
2019-03-19T05:01:30.375Z,3.79
2019-03-19T05:03:56.357Z,3.80
2019-03-19T05:06:22.214Z,3.80
2019-03-19T05:08:48.111Z,3.78
2019-03-19T05:11:14.016Z,3.77
2019-03-19T05:13:39.873Z,3.79
2019-03-19T05:16:05.863Z,3.77
2019-03-19T05:18:31.734Z,3.83
2019-03-19T05:20:57.582Z,3.83
2019-03-19T05:23:23.555Z,3.78
2019-03-19T05:25:49.383Z,3.82
2019-03-19T05:28:15.390Z,3.78
2019-03-19T05:30:41.352Z,3.71
2019-03-19T05:33:07.211Z,3.68
2019-03-19T05:35:35.129Z,3.68
2019-03-19T05:38:01.093Z,3.57
2019-03-19T05:40:27.027Z,3.57
2019-03-19T05:42:52.887Z,3.62
2019-03-19T05:45:18.726Z,3.59
2019-03-19T05:47:44.681Z,3.60
2019-03-19T05:50:17.219Z,3.70
2019-03-19T05:52:43.163Z,3.66
2019-03-19T05:55:09.825Z,3.66
2019-03-19T05:57:35.857Z,3.59
2019-03-19T06:00:07.594Z,3.64
2019-03-19T06:02:33.542Z,3.64
2019-03-19T06:04:59.469Z,3.72
2019-03-19T06:07:25.295Z,3.65
2019-03-19T06:09:51.315Z,3.85
2019-03-19T06:12:17.254Z,3.74
2019-03-19T06:14:43.201Z,3.74
2019-03-19T06:17:09.093Z,3.66
2019-03-19T06:19:34.961Z,3.68
2019-03-19T06:22:00.897Z,3.81
2019-03-19T06:24:26.849Z,3.85
2019-03-19T06:26:52.764Z,3.95
2019-03-19T06:29:18.582Z,4.11
2019-03-19T06:31:44.650Z,4.32
2019-03-19T06:34:10.620Z,4.46
2019-03-19T06:36:36.543Z,4.68
2019-03-19T06:39:05.540Z,4.69
2019-03-19T06:41:31.384Z,4.55
2019-03-19T06:43:57.327Z,4.61
2019-03-19T06:46:23.419Z,4.70
2019-03-19T06:48:49.286Z,4.74
2019-03-19T06:51:15.127Z,5.05
2019-03-19T06:53:41.214Z,5.31
2019-03-19T06:56:07.162Z,5.11
2019-03-19T06:58:33.003Z,5.09
2019-03-19T07:00:58.885Z,5.09
2019-03-19T07:03:24.749Z,5.17
2019-03-19T07:05:50.695Z,5.24
2019-03-19T07:08:16.553Z,5.45
2019-03-19T07:10:42.403Z,5.57
2019-03-19T07:13:08.299Z,5.73
2019-03-19T07:15:34.161Z,5.75
2019-03-19T07:18:00.001Z,5.89
2019-03-19T07:20:27.895Z,5.71
2019-03-19T07:22:53.864Z,5.94
2019-03-19T07:25:19.916Z,5.93
2019-03-19T07:27:46.103Z,5.89
2019-03-19T07:30:23.265Z,5.93
2019-03-19T07:32:49.291Z,6.07
2019-03-19T07:35:15.246Z,6.32
2019-03-19T07:37:41.150Z,6.51
2019-03-19T07:40:10.004Z,6.60
2019-03-19T07:42:35.967Z,6.72
2019-03-19T07:45:04.626Z,6.86
2019-03-19T07:47:30.961Z,6.94
2019-03-19T07:49:56.805Z,6.89
2019-03-19T07:52:22.666Z,6.99
2019-03-19T07:54:48.614Z,7.05
2019-03-19T07:57:14.469Z,7.19
2019-03-19T07:59:40.407Z,7.40
2019-03-19T08:02:06.426Z,7.63
2019-03-19T08:04:32.303Z,7.82
2019-03-19T08:06:58.291Z,7.82
2019-03-19T08:09:24.120Z,7.94
2019-03-19T08:11:49.946Z,7.91
2019-03-19T08:14:15.915Z,7.98
2019-03-19T08:16:41.844Z,8.10
2019-03-19T08:19:07.792Z,8.24
2019-03-19T08:21:33.742Z,8.49
2019-03-19T08:23:59.596Z,8.58
2019-03-19T08:26:25.523Z,8.52
2019-03-19T08:28:55.232Z,8.57
2019-03-19T08:31:19.256Z,8.82
2019-03-19T08:33:45.096Z,8.73
2019-03-19T08:36:10.987Z,8.92
2019-03-19T08:38:36.861Z,8.85
2019-03-19T08:41:02.926Z,9.04
2019-03-19T08:43:28.759Z,9.24
2019-03-19T08:45:54.714Z,9.26
2019-03-19T08:48:21.919Z,9.36
2019-03-19T08:50:47.794Z,9.53
2019-03-19T08:53:13.720Z,9.45
2019-03-19T08:55:39.887Z,9.58
2019-03-19T08:58:05.737Z,9.50
2019-03-19T09:00:31.622Z,9.82
2019-03-19T09:02:57.496Z,9.81
2019-03-19T09:05:23.404Z,10.05
2019-03-19T09:07:49.449Z,10.14
2019-03-19T09:10:16.195Z,10.22
2019-03-19T09:12:42.244Z,10.07
2019-03-19T09:15:19.073Z,10.35
2019-03-19T09:17:44.914Z,10.34
2019-03-19T09:20:15.096Z,10.72
2019-03-19T09:22:41.174Z,10.62
2019-03-19T09:25:09.419Z,10.57
2019-03-19T09:27:35.440Z,10.69
2019-03-19T09:30:01.468Z,10.65
2019-03-19T09:32:27.289Z,10.67
2019-03-19T09:34:53.364Z,10.84
2019-03-19T09:37:19.288Z,11.21
2019-03-19T09:39:45.148Z,11.39
2019-03-19T09:42:11.188Z,11.03
2019-03-19T09:44:37.035Z,11.13
2019-03-19T09:47:02.993Z,11.26
2019-03-19T09:49:28.910Z,11.26
2019-03-19T09:51:54.753Z,11.57
2019-03-19T09:54:20.583Z,11.55
2019-03-19T09:56:46.677Z,11.21
2019-03-19T09:59:12.510Z,11.21
2019-03-19T10:01:38.402Z,11.57
2019-03-19T10:04:04.412Z,11.65
2019-03-19T10:06:30.331Z,11.65
2019-03-19T10:08:56.281Z,11.91
2019-03-19T10:11:22.129Z,11.64
2019-03-19T10:13:47.980Z,11.48
2019-03-19T10:16:13.919Z,11.83
2019-03-19T10:18:39.874Z,11.68
2019-03-19T10:21:05.818Z,11.82
2019-03-19T10:23:31.669Z,11.80
2019-03-19T10:25:57.682Z,11.77
2019-03-19T10:28:23.929Z,11.61
2019-03-19T10:30:49.899Z,11.76
2019-03-19T10:33:16.221Z,11.57
2019-03-19T10:35:42.259Z,11.65
2019-03-19T10:38:08.296Z,11.54
2019-03-19T10:40:34.354Z,11.42
2019-03-19T10:43:00.300Z,11.91
2019-03-19T10:45:26.180Z,11.93
2019-03-19T10:47:52.227Z,12.08
2019-03-19T10:50:21.882Z,12.23
2019-03-19T10:52:48.024Z,12.34
2019-03-19T10:55:14.042Z,12.01
2019-03-19T10:57:39.984Z,12.42
2019-03-19T11:00:10.553Z,11.99
2019-03-19T11:02:36.415Z,12.12
2019-03-19T11:05:05.234Z,12.54
2019-03-19T11:07:31.130Z,12.23
2019-03-19T11:09:57.093Z,12.35
2019-03-19T11:12:23.038Z,12.14
2019-03-19T11:14:48.885Z,12.08
2019-03-19T11:17:14.813Z,11.96
2019-03-19T11:19:40.672Z,11.75
2019-03-19T11:22:06.720Z,11.92
2019-03-19T11:24:32.631Z,11.95
2019-03-19T11:26:58.521Z,11.47
2019-03-19T11:29:24.363Z,11.60
2019-03-19T11:31:50.232Z,12.82
2019-03-19T11:34:16.096Z,12.82
2019-03-19T11:36:42.063Z,13.57
2019-03-19T11:39:08.086Z,13.29
2019-03-19T11:41:33.968Z,13.39
2019-03-19T11:43:59.852Z,13.55
2019-03-19T11:46:25.770Z,13.45
2019-03-19T11:48:51.742Z,14.24
2019-03-19T11:51:17.650Z,13.40
2019-03-19T11:53:43.637Z,12.84
2019-03-19T11:56:09.462Z,13.70
2019-03-19T11:58:35.336Z,12.88
2019-03-19T12:01:03.125Z,12.38
2019-03-19T12:03:28.935Z,13.55
2019-03-19T12:05:54.850Z,13.97
2019-03-19T12:08:20.728Z,13.60
2019-03-19T12:10:46.667Z,13.80
2019-03-19T12:13:12.771Z,13.88
2019-03-19T12:15:38.782Z,13.81
2019-03-19T12:18:04.803Z,13.24
2019-03-19T12:20:30.767Z,14.14
2019-03-19T12:22:56.600Z,14.46
2019-03-19T12:25:22.583Z,13.91
2019-03-19T12:27:48.526Z,14.02
2019-03-19T12:30:22.252Z,13.32
2019-03-19T12:32:44.328Z,13.21
2019-03-19T12:35:11.046Z,13.14
2019-03-19T12:37:36.904Z,13.51
2019-03-19T12:40:13.929Z,12.90
2019-03-19T12:42:39.965Z,12.92
2019-03-19T12:45:17.600Z,12.82
2019-03-19T12:47:43.524Z,13.18
2019-03-19T12:50:16.021Z,12.42
2019-03-19T12:52:41.946Z,13.03
2019-03-19T12:55:08.488Z,12.52
2019-03-19T12:57:34.423Z,12.19
2019-03-19T13:00:00.345Z,13.32
2019-03-19T13:02:26.296Z,12.82
2019-03-19T13:04:52.146Z,12.73
2019-03-19T13:07:18.204Z,13.49
2019-03-19T13:09:44.165Z,16.83
2019-03-19T13:12:10.101Z,15.23
2019-03-19T13:14:36.116Z,17.19
2019-03-19T13:17:02.153Z,15.89
2019-03-19T13:19:28.230Z,13.39
2019-03-19T13:21:54.072Z,14.04
2019-03-19T13:24:19.996Z,13.77
2019-03-19T13:26:45.979Z,17.65
2019-03-19T13:29:11.916Z,20.17
2019-03-19T13:31:37.761Z,16.25
2019-03-19T13:34:03.737Z,15.35
2019-03-19T13:36:29.562Z,16.25
2019-03-19T13:38:55.464Z,15.07
2019-03-19T13:41:21.388Z,14.16
2019-03-19T13:43:47.269Z,13.44
2019-03-19T13:46:13.224Z,13.59
2019-03-19T13:48:39.211Z,14.58
2019-03-19T13:51:05.271Z,14.10
2019-03-19T13:53:31.134Z,13.09
2019-03-19T13:55:57.075Z,13.09
2019-03-19T13:58:22.960Z,13.18
2019-03-19T14:00:55.497Z,13.57
2019-03-19T14:03:16.848Z,13.41
2019-03-19T14:05:42.931Z,13.79
2019-03-19T14:08:08.854Z,13.33
2019-03-19T14:10:34.687Z,13.50
2019-03-19T14:13:00.683Z,13.34
2019-03-19T14:15:26.602Z,13.44
2019-03-19T14:17:52.573Z,13.34
2019-03-19T14:20:18.611Z,13.52
2019-03-19T14:22:45.459Z,13.38
2019-03-19T14:25:15.461Z,13.85
2019-03-19T14:27:41.906Z,13.47
2019-03-19T14:30:16.537Z,13.35
2019-03-19T14:32:42.620Z,13.92
2019-03-19T14:35:08.662Z,14.15
2019-03-19T14:37:34.636Z,14.16
2019-03-19T14:40:00.595Z,14.25
2019-03-19T14:42:26.486Z,13.83
2019-03-19T14:44:52.485Z,13.54
2019-03-19T14:47:18.431Z,13.60
2019-03-19T14:49:47.780Z,13.45
2019-03-19T14:52:12.371Z,14.09
2019-03-19T14:54:38.203Z,13.04
2019-03-19T14:57:04.288Z,13.07
2019-03-19T14:59:30.198Z,13.41
2019-03-19T15:01:56.243Z,13.94
2019-03-19T15:04:22.224Z,14.91
2019-03-19T15:06:48.065Z,14.51
2019-03-19T15:09:14.016Z,13.75
2019-03-19T15:11:40.065Z,13.23
2019-03-19T15:14:06.034Z,13.83
2019-03-19T15:16:31.870Z,14.11
2019-03-19T15:18:57.827Z,13.22
2019-03-19T15:21:23.779Z,18.18
2019-03-19T15:23:49.839Z,20.91
2019-03-19T15:26:15.674Z,20.70
2019-03-19T15:28:41.748Z,19.18
2019-03-19T15:31:07.597Z,18.34
2019-03-19T15:33:33.543Z,16.68
2019-03-19T15:35:59.461Z,15.97
2019-03-19T15:38:25.286Z,16.57
2019-03-19T15:40:51.236Z,21.09
2019-03-19T15:43:17.308Z,20.37
2019-03-19T15:45:48.995Z,20.41
2019-03-19T15:48:14.925Z,18.88
2019-03-19T15:50:40.924Z,17.33
2019-03-19T15:53:06.906Z,15.52
2019-03-19T15:55:33.205Z,15.27
2019-03-19T15:57:59.113Z,15.52
2019-03-19T16:00:25.104Z,15.44
2019-03-19T16:02:51.033Z,14.51
2019-03-19T16:05:17.200Z,15.96
2019-03-19T16:07:43.257Z,15.94
2019-03-19T16:10:12.363Z,15.15
2019-03-19T16:12:38.359Z,14.27
2019-03-19T16:15:07.712Z,14.74
2019-03-19T16:17:33.576Z,14.44
2019-03-19T16:19:59.488Z,14.75
2019-03-19T16:22:25.326Z,13.78
2019-03-19T16:24:51.145Z,15.30
2019-03-19T16:27:17.113Z,16.47
2019-03-19T16:29:43.141Z,17.06
2019-03-19T16:32:09.032Z,16.54
2019-03-19T16:34:34.855Z,18.44
2019-03-19T16:37:00.793Z,15.28
2019-03-19T16:39:26.774Z,13.90
2019-03-19T16:41:52.607Z,13.97
2019-03-19T16:44:18.478Z,14.61
2019-03-19T16:46:44.605Z,15.51
2019-03-19T16:49:10.531Z,14.48
2019-03-19T16:51:39.455Z,15.05
2019-03-19T16:54:05.379Z,13.81
2019-03-19T16:56:31.217Z,13.48
2019-03-19T16:58:57.285Z,13.14
2019-03-19T17:01:23.110Z,12.78
2019-03-19T17:03:48.934Z,12.58
2019-03-19T17:06:14.893Z,12.60
2019-03-19T17:08:40.846Z,12.69
2019-03-19T17:11:06.667Z,12.42
2019-03-19T17:13:32.518Z,12.31
2019-03-19T17:15:58.381Z,12.18
2019-03-19T17:18:24.377Z,12.04
2019-03-19T17:20:50.218Z,11.79
2019-03-19T17:23:16.060Z,11.69
2019-03-19T17:25:42.102Z,11.75
2019-03-19T17:28:08.058Z,11.59
2019-03-19T17:30:34.900Z,11.65
2019-03-19T17:33:00.973Z,11.56
2019-03-19T17:35:26.835Z,11.57
2019-03-19T17:37:52.788Z,11.50
2019-03-19T17:40:18.974Z,11.32
2019-03-19T17:42:44.910Z,11.29
2019-03-19T17:45:14.704Z,11.28
2019-03-19T17:47:41.017Z,11.20
2019-03-19T17:50:20.782Z,11.14
2019-03-19T17:52:49.087Z,11.15
2019-03-19T17:55:15.043Z,11.02
2019-03-19T17:57:41.001Z,10.90
2019-03-19T18:00:10.690Z,10.83
2019-03-19T18:02:36.548Z,10.80
2019-03-19T18:05:05.435Z,10.81
2019-03-19T18:07:31.344Z,10.76
2019-03-19T18:09:57.186Z,10.67
2019-03-19T18:12:23.005Z,10.57
2019-03-19T18:14:49.007Z,10.43
2019-03-19T18:17:14.842Z,10.44
2019-03-19T18:19:40.707Z,10.47
2019-03-19T18:22:06.655Z,10.55
2019-03-19T18:24:32.574Z,10.46
2019-03-19T18:26:58.795Z,10.72
2019-03-19T18:29:24.747Z,10.61
2019-03-19T18:31:50.844Z,10.61
2019-03-19T18:34:18.976Z,10.55
2019-03-19T18:36:44.569Z,10.51
2019-03-19T18:39:13.392Z,10.37
2019-03-19T18:41:39.246Z,10.39
2019-03-19T18:44:05.082Z,10.43
2019-03-19T18:46:31.036Z,10.39
2019-03-19T18:48:56.972Z,10.22
2019-03-19T18:51:22.963Z,9.95
2019-03-19T18:53:48.817Z,10.35
2019-03-19T18:56:14.723Z,10.53
2019-03-19T18:58:40.759Z,10.48
2019-03-19T19:01:06.690Z,10.48
2019-03-19T19:03:32.513Z,10.45
2019-03-19T19:05:58.390Z,10.44
2019-03-19T19:08:24.446Z,10.43
2019-03-19T19:10:50.385Z,10.26
2019-03-19T19:13:16.376Z,10.29
2019-03-19T19:15:42.214Z,10.31
2019-03-19T19:18:08.189Z,10.34
2019-03-19T19:20:34.167Z,10.30
2019-03-19T19:23:00.020Z,10.22
2019-03-19T19:25:26.183Z,10.24
2019-03-19T19:27:52.226Z,10.30
2019-03-19T19:30:19.571Z,10.24
2019-03-19T19:32:45.490Z,10.28
2019-03-19T19:35:11.443Z,10.38
2019-03-19T19:37:37.393Z,10.41
2019-03-19T19:40:07.040Z,10.37
2019-03-19T19:42:32.872Z,10.39
2019-03-19T19:44:58.787Z,10.29
2019-03-19T19:47:24.632Z,10.29
2019-03-19T19:49:50.522Z,10.36
2019-03-19T19:52:16.560Z,10.35
2019-03-19T19:54:42.399Z,10.31
2019-03-19T19:57:08.370Z,10.33
2019-03-19T19:59:35.113Z,10.29
2019-03-19T20:02:00.968Z,10.19
2019-03-19T20:04:26.881Z,10.28
2019-03-19T20:06:52.868Z,10.23
2019-03-19T20:09:18.689Z,10.21
2019-03-19T20:11:44.607Z,10.16
2019-03-19T20:14:10.556Z,10.06
2019-03-19T20:16:36.481Z,10.18
2019-03-19T20:19:02.830Z,10.06
2019-03-19T20:21:28.674Z,10.07
2019-03-19T20:23:54.503Z,9.93
2019-03-19T20:26:20.368Z,9.92
2019-03-19T20:28:46.203Z,10.02
2019-03-19T20:31:12.110Z,9.96
2019-03-19T20:33:37.953Z,9.95
2019-03-19T20:36:03.883Z,9.95
2019-03-19T20:38:32.816Z,9.84
2019-03-19T20:40:58.657Z,9.96
2019-03-19T20:43:24.595Z,9.81
2019-03-19T20:45:50.680Z,9.78
2019-03-19T20:48:16.500Z,9.82
2019-03-19T20:50:42.584Z,9.77
2019-03-19T20:53:08.450Z,9.65
2019-03-19T20:55:34.300Z,9.61
2019-03-19T20:58:00.382Z,9.64
2019-03-19T21:00:26.320Z,9.61
2019-03-19T21:02:52.253Z,9.57
2019-03-19T21:05:18.204Z,9.69
2019-03-19T21:07:44.349Z,9.59
2019-03-19T21:10:16.256Z,9.43
2019-03-19T21:12:42.479Z,9.56
2019-03-19T21:15:19.999Z,9.53
2019-03-19T21:17:46.633Z,9.51
2019-03-19T21:20:12.673Z,9.39
2019-03-19T21:22:38.642Z,9.32
2019-03-19T21:25:05.389Z,9.37
2019-03-19T21:27:31.467Z,9.41
2019-03-19T21:29:57.359Z,9.41
2019-03-19T21:32:23.402Z,9.46
2019-03-19T21:34:49.185Z,9.29
2019-03-19T21:37:15.115Z,9.32
2019-03-19T21:39:41.123Z,9.26
2019-03-19T21:42:06.957Z,9.24
2019-03-19T21:44:32.812Z,9.24
2019-03-19T21:46:58.929Z,9.23
2019-03-19T21:49:24.759Z,9.23
2019-03-19T21:51:50.723Z,9.15
2019-03-19T21:54:17.988Z,9.20
2019-03-19T21:56:43.848Z,9.18
2019-03-19T21:59:10.059Z,9.19
2019-03-19T22:01:35.912Z,9.11
2019-03-19T22:04:03.400Z,9.09
2019-03-19T22:06:29.792Z,8.98
2019-03-19T22:08:55.633Z,8.89
2019-03-19T22:11:21.491Z,8.89
2019-03-19T22:13:47.493Z,8.92
2019-03-19T22:16:13.335Z,9.04
2019-03-19T22:18:39.212Z,9.03
2019-03-19T22:21:05.211Z,8.93
2019-03-19T22:23:31.235Z,8.87
2019-03-19T22:25:57.062Z,8.95
2019-03-19T22:28:22.902Z,8.85
2019-03-19T22:30:52.490Z,8.84
2019-03-19T22:33:18.325Z,8.66
2019-03-19T22:35:44.311Z,8.48
2019-03-19T22:38:10.265Z,8.68
2019-03-19T22:40:36.192Z,8.61
2019-03-19T22:43:02.141Z,8.56
2019-03-19T22:45:28.096Z,8.40
2019-03-19T22:47:54.097Z,8.25
2019-03-19T22:50:20.023Z,8.18
2019-03-19T22:52:46.078Z,8.23
2019-03-19T22:55:12.947Z,8.07
2019-03-19T22:57:38.879Z,8.04
2019-03-19T23:00:08.414Z,8.02
2019-03-19T23:02:34.266Z,7.91
2019-03-19T23:05:00.329Z,7.93
2019-03-19T23:07:26.263Z,7.86
2019-03-19T23:09:52.115Z,7.88
2019-03-19T23:12:18.020Z,7.86
2019-03-19T23:14:43.968Z,7.75
2019-03-19T23:17:10.020Z,7.74
2019-03-19T23:19:35.896Z,7.67
2019-03-19T23:22:01.851Z,7.59
2019-03-19T23:24:27.868Z,7.52
2019-03-19T23:26:53.801Z,7.37
2019-03-19T23:29:19.747Z,7.28
2019-03-19T23:31:45.662Z,7.32
2019-03-19T23:34:11.526Z,7.38
2019-03-19T23:36:37.490Z,7.41
2019-03-19T23:39:04.657Z,7.46
2019-03-19T23:41:30.508Z,7.39
2019-03-19T23:43:56.665Z,7.29
2019-03-19T23:46:22.481Z,7.22
2019-03-19T23:48:48.316Z,7.28
2019-03-19T23:51:14.215Z,7.08
2019-03-19T23:53:40.068Z,7.01
2019-03-19T23:56:06.127Z,6.94
2019-03-19T23:58:32.018Z,6.91
